createdAt,value
2018-10-05T00:02:18.544Z,72.12
2018-10-05T00:04:46.143Z,72.30
2018-10-05T00:07:13.714Z,72.80
2018-10-05T00:09:41.262Z,72.84
2018-10-05T00:12:08.865Z,72.57
2018-10-05T00:14:36.454Z,72.85
2018-10-05T00:17:05.353Z,72.54
2018-10-05T00:19:32.946Z,72.65
2018-10-05T00:22:00.530Z,72.98
2018-10-05T00:24:28.074Z,72.37
2018-10-05T00:26:55.637Z,72.31
2018-10-05T00:29:23.221Z,72.68
2018-10-05T00:31:50.772Z,72.15
2018-10-05T00:34:18.321Z,72.41
2018-10-05T00:36:46.021Z,72.36
2018-10-05T00:39:13.589Z,72.21
2018-10-05T00:41:41.129Z,72.32
2018-10-05T00:44:08.678Z,71.64
2018-10-05T00:46:36.209Z,71.81
2018-10-05T00:49:04.058Z,71.31
2018-10-05T00:51:31.602Z,71.06
2018-10-05T00:53:59.198Z,71.62
2018-10-05T00:56:26.746Z,71.33
2018-10-05T00:58:54.378Z,71.18
2018-10-05T01:01:21.996Z,71.79
2018-10-05T01:03:49.593Z,71.44
2018-10-05T01:06:17.147Z,71.61
2018-10-05T01:08:44.698Z,71.10
2018-10-05T01:11:12.332Z,70.95
2018-10-05T01:13:39.906Z,71.85
2018-10-05T01:16:07.492Z,71.57
2018-10-05T01:18:35.052Z,71.03
2018-10-05T01:21:02.706Z,70.80
2018-10-05T01:23:30.248Z,70.91
2018-10-05T01:25:57.879Z,70.46
2018-10-05T01:28:25.409Z,70.24
2018-10-05T01:30:52.992Z,70.15
2018-10-05T01:33:20.551Z,70.02
2018-10-05T01:35:48.098Z,69.27
2018-10-05T01:38:15.617Z,69.68
2018-10-05T01:40:43.167Z,70.69
2018-10-05T01:43:10.689Z,70.40
2018-10-05T01:45:38.247Z,70.39
2018-10-05T01:48:05.836Z,70.07
2018-10-05T01:50:33.415Z,69.84
2018-10-05T01:53:00.979Z,70.08
2018-10-05T01:55:28.585Z,69.99
2018-10-05T01:57:56.176Z,70.58
2018-10-05T02:00:23.769Z,70.60
2018-10-05T02:02:51.301Z,71.46
2018-10-05T02:05:18.883Z,71.89
2018-10-05T02:07:46.425Z,71.34
2018-10-05T02:10:13.976Z,71.52
2018-10-05T02:12:41.571Z,72.00
2018-10-05T02:15:09.115Z,71.76
2018-10-05T02:17:36.702Z,71.90
2018-10-05T02:20:04.488Z,72.22
2018-10-05T02:22:32.053Z,72.52
2018-10-05T02:24:59.590Z,72.62
2018-10-05T02:27:27.261Z,72.71
2018-10-05T02:29:54.884Z,72.80
2018-10-05T02:32:29.294Z,72.59
2018-10-05T02:34:56.839Z,72.87
2018-10-05T02:37:24.629Z,73.16
2018-10-05T02:39:52.198Z,72.90
2018-10-05T02:42:19.755Z,73.02
2018-10-05T02:44:47.364Z,73.23
2018-10-05T02:47:14.958Z,73.29
2018-10-05T02:49:42.586Z,73.54
2018-10-05T02:52:10.254Z,73.61
2018-10-05T02:54:37.822Z,73.74
2018-10-05T02:57:05.402Z,73.54
2018-10-05T02:59:32.973Z,73.45
2018-10-05T03:02:18.254Z,73.53
2018-10-05T03:04:45.804Z,73.85
2018-10-05T03:07:13.388Z,73.28
2018-10-05T03:09:40.936Z,73.42
2018-10-05T03:12:08.567Z,72.45
2018-10-05T03:14:36.146Z,72.72
2018-10-05T03:17:03.745Z,72.79
2018-10-05T03:19:31.326Z,72.78
2018-10-05T03:21:58.930Z,72.98
2018-10-05T03:24:26.540Z,72.46
2018-10-05T03:26:54.127Z,72.14
2018-10-05T03:29:21.729Z,72.54
2018-10-05T03:31:49.314Z,72.61
2018-10-05T03:34:16.954Z,72.27
2018-10-05T03:36:44.540Z,72.57
2018-10-05T03:39:12.074Z,72.54
2018-10-05T03:41:39.637Z,72.77
2018-10-05T03:44:07.249Z,72.83
2018-10-05T03:46:34.812Z,72.68
2018-10-05T03:49:02.383Z,72.22
2018-10-05T03:51:29.950Z,72.13
2018-10-05T03:53:57.538Z,72.31
2018-10-05T03:56:25.126Z,72.62
2018-10-05T03:58:52.684Z,72.19
2018-10-05T04:01:20.271Z,72.49
2018-10-05T04:03:47.791Z,72.44
2018-10-05T04:06:15.472Z,71.94
2018-10-05T04:08:43.029Z,72.32
2018-10-05T04:11:10.592Z,72.47
2018-10-05T04:13:38.167Z,72.00
2018-10-05T04:16:05.832Z,71.79
2018-10-05T04:18:33.393Z,71.42
2018-10-05T04:21:01.240Z,71.77
2018-10-05T04:23:28.793Z,71.02
2018-10-05T04:25:56.393Z,71.34
2018-10-05T04:28:23.984Z,71.01
2018-10-05T04:30:51.578Z,70.89
2018-10-05T04:33:19.179Z,70.99
2018-10-05T04:35:46.850Z,70.95
2018-10-05T04:38:14.431Z,70.65
2018-10-05T04:40:42.074Z,70.71
2018-10-05T04:43:09.784Z,70.87
2018-10-05T04:45:44.208Z,71.05
2018-10-05T04:48:12.966Z,70.84
2018-10-05T04:50:40.570Z,70.64
2018-10-05T04:53:08.202Z,70.70
2018-10-05T04:55:35.741Z,70.46
2018-10-05T04:58:03.405Z,70.32
2018-10-05T05:00:31.016Z,70.20
2018-10-05T05:02:58.667Z,70.06
2018-10-05T05:05:27.548Z,70.31
2018-10-05T05:07:55.199Z,70.75
2018-10-05T05:10:22.758Z,70.06
2018-10-05T05:12:50.344Z,70.21
2018-10-05T05:15:18.254Z,70.60
2018-10-05T05:17:45.838Z,69.68
2018-10-05T05:20:13.454Z,69.44
2018-10-05T05:22:41.030Z,69.50
2018-10-05T05:25:08.643Z,69.47
2018-10-05T05:27:36.232Z,69.52
2018-10-05T05:30:03.958Z,69.20
2018-10-05T05:32:31.555Z,69.15
2018-10-05T05:34:59.133Z,69.23
2018-10-05T05:37:26.679Z,69.35
2018-10-05T05:39:54.225Z,69.39
2018-10-05T05:42:21.807Z,69.46
2018-10-05T05:44:49.485Z,69.25
2018-10-05T05:47:17.067Z,68.69
2018-10-05T05:49:44.770Z,68.89
2018-10-05T05:52:12.328Z,68.51
2018-10-05T05:54:39.997Z,68.04
2018-10-05T05:57:07.604Z,68.07
2018-10-05T05:59:35.191Z,67.58
2018-10-05T06:02:02.843Z,67.56
2018-10-05T06:04:30.416Z,67.10
2018-10-05T06:06:57.986Z,66.74
2018-10-05T06:09:25.619Z,65.74
2018-10-05T06:11:53.216Z,65.75
2018-10-05T06:14:20.854Z,65.88
2018-10-05T06:16:48.427Z,65.21
2018-10-05T06:19:16.030Z,64.91
2018-10-05T06:21:43.633Z,64.63
2018-10-05T06:24:11.222Z,64.75
2018-10-05T06:26:38.770Z,64.43
2018-10-05T06:29:06.404Z,63.38
2018-10-05T06:31:34.028Z,63.31
2018-10-05T06:34:01.567Z,63.17
2018-10-05T06:36:29.139Z,62.87
2018-10-05T06:38:56.751Z,62.23
2018-10-05T06:41:24.321Z,61.84
2018-10-05T06:43:52.143Z,61.86
2018-10-05T06:46:19.725Z,60.80
2018-10-05T06:48:47.448Z,61.53
2018-10-05T06:51:15.035Z,60.88
2018-10-05T06:53:42.603Z,60.23
2018-10-05T06:56:10.328Z,59.55
2018-10-05T06:58:38.173Z,60.20
2018-10-05T07:01:05.749Z,59.57
2018-10-05T07:03:33.371Z,59.18
2018-10-05T07:06:01.061Z,59.24
2018-10-05T07:08:28.623Z,59.63
2018-10-05T07:10:56.287Z,58.97
2018-10-05T07:13:23.947Z,58.55
2018-10-05T07:15:51.574Z,59.29
2018-10-05T07:18:19.160Z,58.95
2018-10-05T07:20:46.727Z,57.99
2018-10-05T07:23:14.362Z,57.33
2018-10-05T07:25:42.084Z,57.71
2018-10-05T07:28:09.715Z,56.82
2018-10-05T07:30:37.357Z,57.46
2018-10-05T07:33:04.993Z,56.74
2018-10-05T07:35:32.765Z,56.05
2018-10-05T07:38:00.381Z,56.02
2018-10-05T07:40:28.350Z,56.15
2018-10-05T07:42:56.109Z,55.58
2018-10-05T07:45:23.699Z,55.06
2018-10-05T07:47:51.303Z,54.71
2018-10-05T07:50:18.994Z,54.84
2018-10-05T07:52:46.714Z,54.79
2018-10-05T07:55:14.367Z,53.95
2018-10-05T07:57:42.096Z,54.11
2018-10-05T08:00:09.745Z,53.54
2018-10-05T08:02:37.354Z,53.44
2018-10-05T08:05:05.065Z,53.12
2018-10-05T08:07:32.785Z,52.83
2018-10-05T08:10:00.390Z,51.34
2018-10-05T08:12:28.089Z,50.80
2018-10-05T08:14:55.700Z,51.22
2018-10-05T08:17:23.507Z,50.32
2018-10-05T08:19:51.193Z,50.50
2018-10-05T08:22:18.860Z,49.48
2018-10-05T08:24:46.650Z,49.60
2018-10-05T08:27:14.295Z,50.00
2018-10-05T08:29:41.888Z,49.10
2018-10-05T08:32:09.545Z,48.75
2018-10-05T08:34:37.223Z,48.19
2018-10-05T08:37:05.303Z,48.98
2018-10-05T08:39:32.889Z,48.38
2018-10-05T08:42:00.599Z,48.68
2018-10-05T08:44:28.221Z,47.61
2018-10-05T08:46:55.874Z,47.43
2018-10-05T08:49:23.453Z,46.91
2018-10-05T08:51:51.119Z,46.75
2018-10-05T08:54:18.755Z,46.01
2018-10-05T08:56:46.392Z,47.39
2018-10-05T08:59:13.981Z,46.57
2018-10-05T09:01:41.645Z,47.20
2018-10-05T09:04:09.258Z,46.46
2018-10-05T09:06:36.896Z,45.35
2018-10-05T09:09:06.149Z,45.77
2018-10-05T09:11:33.865Z,46.28
2018-10-05T09:14:01.484Z,46.46
2018-10-05T09:16:29.088Z,45.56
2018-10-05T09:18:56.725Z,45.56
2018-10-05T09:21:24.385Z,45.49
2018-10-05T09:23:52.213Z,45.05
2018-10-05T09:26:19.882Z,45.01
2018-10-05T09:28:47.540Z,44.42
2018-10-05T09:31:15.198Z,45.20
2018-10-05T09:33:42.868Z,44.76
2018-10-05T09:36:10.598Z,43.60
2018-10-05T09:38:38.400Z,43.24
2018-10-05T09:41:06.353Z,42.59
2018-10-05T09:43:34.041Z,43.18
2018-10-05T09:46:01.665Z,43.11
2018-10-05T09:48:29.310Z,42.79
2018-10-05T09:50:57.151Z,42.43
2018-10-05T09:53:24.766Z,42.20
2018-10-05T09:55:52.443Z,41.79
2018-10-05T09:58:20.074Z,41.82
2018-10-05T10:00:53.687Z,42.23
2018-10-05T10:03:27.171Z,42.15
2018-10-05T10:05:55.112Z,42.08
2018-10-05T10:08:22.828Z,41.35
2018-10-05T10:10:50.391Z,41.06
2018-10-05T10:13:18.008Z,41.08
2018-10-05T10:15:45.797Z,40.78
2018-10-05T10:18:13.436Z,41.32
2018-10-05T10:20:41.107Z,39.62
2018-10-05T10:23:08.753Z,40.13
2018-10-05T10:25:36.475Z,40.24
2018-10-05T10:28:04.102Z,40.23
2018-10-05T10:30:31.735Z,38.56
2018-10-05T10:32:59.411Z,39.02
2018-10-05T10:35:27.133Z,38.78
2018-10-05T10:37:54.782Z,38.05
2018-10-05T10:40:22.424Z,38.15
2018-10-05T10:42:50.121Z,38.75
2018-10-05T10:45:17.807Z,37.90
2018-10-05T10:47:45.451Z,37.12
2018-10-05T10:50:13.133Z,36.79
2018-10-05T10:52:40.803Z,37.55
2018-10-05T10:55:08.483Z,36.83
2018-10-05T10:57:36.104Z,36.63
2018-10-05T11:00:03.911Z,37.23
2018-10-05T11:02:31.697Z,35.83
2018-10-05T11:04:59.357Z,35.43
2018-10-05T11:07:26.960Z,35.19
2018-10-05T11:09:54.625Z,34.10
2018-10-05T11:12:22.301Z,32.27
2018-10-05T11:14:49.937Z,29.05
2018-10-05T11:17:17.527Z,27.63
2018-10-05T11:19:45.190Z,25.27
2018-10-05T11:22:12.827Z,22.43
2018-10-05T11:24:40.476Z,20.69
2018-10-05T11:27:08.680Z,19.68
2018-10-05T11:29:36.358Z,18.88
2018-10-05T11:32:03.933Z,16.07
2018-10-05T11:34:31.673Z,15.13
2018-10-05T11:36:59.376Z,14.36
2018-10-05T11:39:27.050Z,14.10
2018-10-05T11:41:54.842Z,13.59
2018-10-05T11:44:22.507Z,12.56
2018-10-05T11:46:50.131Z,12.32
2018-10-05T11:49:17.792Z,12.69
2018-10-05T11:51:45.554Z,10.77
2018-10-05T11:54:13.163Z,11.27
2018-10-05T11:56:40.874Z,11.25
2018-10-05T11:59:08.592Z,11.36
2018-10-05T12:01:36.317Z,11.06
2018-10-05T12:04:03.971Z,10.28
2018-10-05T12:06:31.694Z,10.29
2018-10-05T12:08:59.376Z,10.51
2018-10-05T12:11:27.045Z,9.72
2018-10-05T12:13:54.781Z,9.30
2018-10-05T12:16:22.415Z,9.03
2018-10-05T12:18:50.024Z,9.00
2018-10-05T12:21:24.848Z,8.34
2018-10-05T12:23:52.509Z,8.46
2018-10-05T12:26:20.280Z,8.56
2018-10-05T12:28:48.032Z,8.57
2018-10-05T12:31:15.902Z,8.77
2018-10-05T12:33:43.661Z,9.05
2018-10-05T12:36:11.357Z,8.57
2018-10-05T12:38:38.976Z,9.38
2018-10-05T12:41:06.628Z,8.52
2018-10-05T12:43:34.367Z,8.68
2018-10-05T12:46:02.029Z,8.49
2018-10-05T12:48:29.694Z,8.39
2018-10-05T12:50:57.320Z,8.32
2018-10-05T12:53:25.024Z,7.82
2018-10-05T12:55:52.698Z,8.07
2018-10-05T12:58:20.842Z,8.32
2018-10-05T13:00:48.577Z,8.36
2018-10-05T13:03:16.267Z,7.50
2018-10-05T13:05:44.049Z,9.54
2018-10-05T13:08:11.788Z,11.36
2018-10-05T13:10:39.507Z,12.65
2018-10-05T13:13:07.392Z,11.83
2018-10-05T13:15:34.989Z,10.71
2018-10-05T13:18:02.642Z,10.14
2018-10-05T13:20:30.260Z,9.29
2018-10-05T13:22:57.874Z,9.04
2018-10-05T13:25:25.540Z,9.51
2018-10-05T13:27:53.492Z,9.41
2018-10-05T13:30:22.818Z,8.39
2018-10-05T13:32:50.863Z,9.12
2018-10-05T13:35:18.615Z,10.79
2018-10-05T13:37:46.341Z,9.31
2018-10-05T13:40:14.823Z,8.78
2018-10-05T13:42:42.519Z,7.76
2018-10-05T13:45:10.240Z,7.44
2018-10-05T13:47:37.920Z,7.67
2018-10-05T13:50:08.560Z,8.66
2018-10-05T13:52:37.151Z,9.53
2018-10-05T13:55:04.773Z,8.88
2018-10-05T13:57:33.457Z,8.69
2018-10-05T14:00:01.203Z,8.43
2018-10-05T14:02:28.881Z,8.88
2018-10-05T14:04:56.475Z,9.70
2018-10-05T14:07:24.249Z,10.24
2018-10-05T14:09:51.925Z,10.15
2018-10-05T14:12:19.547Z,10.07
2018-10-05T14:14:47.182Z,10.50
2018-10-05T14:17:14.850Z,9.56
2018-10-05T14:19:42.673Z,9.72
2018-10-05T14:22:10.334Z,9.65
2018-10-05T14:24:38.133Z,9.56
2018-10-05T14:27:05.908Z,10.44
2018-10-05T14:29:33.535Z,10.58
2018-10-05T14:32:01.231Z,11.35
2018-10-05T14:34:28.854Z,10.95
2018-10-05T14:37:03.371Z,10.37
2018-10-05T14:39:30.984Z,11.44
2018-10-05T14:41:58.636Z,12.15
2018-10-05T14:44:26.306Z,11.75
2018-10-05T14:46:53.938Z,11.57
2018-10-05T14:49:21.723Z,11.56
2018-10-05T14:51:49.318Z,11.81
2018-10-05T14:54:16.901Z,11.99
2018-10-05T14:56:44.770Z,12.72
2018-10-05T14:59:12.410Z,11.79
2018-10-05T15:01:40.101Z,11.87
2018-10-05T15:04:07.754Z,12.08
2018-10-05T15:06:35.413Z,12.79
2018-10-05T15:09:04.326Z,12.16
2018-10-05T15:11:31.961Z,12.86
2018-10-05T15:13:59.610Z,13.27
2018-10-05T15:16:27.241Z,12.79
2018-10-05T15:18:54.840Z,14.22
2018-10-05T15:21:22.676Z,17.81
2018-10-05T15:23:50.365Z,20.24
2018-10-05T15:26:18.111Z,22.06
2018-10-05T15:28:45.823Z,24.27
2018-10-05T15:31:13.517Z,25.20
2018-10-05T15:33:41.197Z,26.98
2018-10-05T15:36:08.833Z,27.64
2018-10-05T15:38:36.670Z,28.66
2018-10-05T15:41:04.573Z,29.57
2018-10-05T15:43:32.262Z,30.21
2018-10-05T15:46:10.255Z,31.02
2018-10-05T15:48:38.626Z,31.29
2018-10-05T15:51:06.466Z,33.01
2018-10-05T15:53:34.320Z,32.69
2018-10-05T15:56:02.422Z,34.07
2018-10-05T15:58:30.095Z,34.55
2018-10-05T16:00:57.720Z,34.64
2018-10-05T16:03:25.423Z,35.70
2018-10-05T16:05:53.283Z,35.97
2018-10-05T16:08:20.947Z,36.87
2018-10-05T16:10:48.628Z,37.15
2018-10-05T16:13:16.422Z,37.63
2018-10-05T16:15:44.069Z,38.64
2018-10-05T16:18:12.782Z,38.90
2018-10-05T16:20:40.454Z,39.03
2018-10-05T16:23:08.183Z,39.77
2018-10-05T16:25:35.946Z,40.70
2018-10-05T16:28:03.637Z,40.37
2018-10-05T16:30:31.354Z,41.00
2018-10-05T16:32:59.014Z,41.20
2018-10-05T16:35:26.764Z,41.57
2018-10-05T16:37:54.516Z,42.45
2018-10-05T16:40:22.172Z,41.98
2018-10-05T16:42:49.844Z,42.57
2018-10-05T16:45:17.512Z,42.39
2018-10-05T16:47:45.242Z,43.25
2018-10-05T16:50:12.911Z,43.46
2018-10-05T16:52:40.566Z,44.08
2018-10-05T16:55:08.398Z,44.85
2018-10-05T16:57:36.138Z,45.00
2018-10-05T17:00:03.862Z,45.13
2018-10-05T17:02:31.638Z,45.58
2018-10-05T17:04:59.488Z,45.92
2018-10-05T17:07:27.294Z,46.40
2018-10-05T17:09:55.083Z,46.91
2018-10-05T17:12:23.901Z,47.02
2018-10-05T17:14:51.759Z,47.02
2018-10-05T17:17:19.545Z,46.64
2018-10-05T17:19:47.413Z,46.42
2018-10-05T17:22:15.543Z,46.71
2018-10-05T17:24:43.377Z,46.94
2018-10-05T17:27:11.735Z,47.50
2018-10-05T17:29:39.646Z,47.21
2018-10-05T17:32:07.665Z,47.43
2018-10-05T17:34:35.323Z,47.53
2018-10-05T17:37:03.351Z,48.24
2018-10-05T17:39:31.187Z,48.22
2018-10-05T17:41:59.070Z,47.82
2018-10-05T17:44:26.761Z,48.54
2018-10-05T17:46:54.550Z,48.79
2018-10-05T17:49:22.211Z,48.89
2018-10-05T17:51:49.961Z,48.63
2018-10-05T17:54:17.635Z,48.87
2018-10-05T17:56:45.464Z,49.14
2018-10-05T17:59:13.127Z,49.38
2018-10-05T18:01:40.999Z,49.59
2018-10-05T18:04:08.784Z,49.73
2018-10-05T18:06:36.565Z,50.05
2018-10-05T18:09:06.205Z,50.65
2018-10-05T18:11:33.971Z,50.60
2018-10-05T18:14:01.922Z,51.40
2018-10-05T18:16:30.217Z,50.87
2018-10-05T18:18:58.053Z,51.21
2018-10-05T18:21:25.880Z,51.17
2018-10-05T18:23:53.654Z,51.79
2018-10-05T18:26:21.405Z,52.43
2018-10-05T18:28:49.164Z,52.16
2018-10-05T18:31:17.036Z,51.93
2018-10-05T18:33:45.019Z,52.37
2018-10-05T18:36:13.381Z,52.50
2018-10-05T18:38:41.295Z,52.22
2018-10-05T18:41:09.949Z,52.79
2018-10-05T18:43:37.978Z,52.97
2018-10-05T18:46:06.610Z,52.38
2018-10-05T18:48:34.881Z,52.80
2018-10-05T18:51:02.670Z,53.43
2018-10-05T18:53:30.953Z,53.75
2018-10-05T18:57:09.939Z,53.63
2018-10-05T18:59:37.614Z,54.88
2018-10-05T19:02:05.349Z,55.43
2018-10-05T19:04:33.061Z,55.70
2018-10-05T19:07:00.756Z,55.77
2018-10-05T19:09:28.536Z,56.11
2018-10-05T19:11:56.259Z,56.04
2018-10-05T19:14:24.079Z,56.53
2018-10-05T19:16:51.990Z,56.86
2018-10-05T19:19:19.670Z,56.47
2018-10-05T19:21:47.380Z,56.96
2018-10-05T19:24:15.227Z,57.58
2018-10-05T19:26:43.063Z,57.55
2018-10-05T19:29:10.630Z,57.96
2018-10-05T19:31:38.244Z,57.60
2018-10-05T19:34:06.028Z,57.90
2018-10-05T19:36:33.890Z,58.23
2018-10-05T19:39:01.578Z,58.21
2018-10-05T19:41:29.178Z,58.35
2018-10-05T19:43:56.860Z,58.74
2018-10-05T19:46:24.490Z,59.20
2018-10-05T19:48:52.209Z,58.98
2018-10-05T19:51:19.920Z,59.75
2018-10-05T19:53:47.801Z,59.44
2018-10-05T19:56:15.440Z,59.94
2018-10-05T19:58:43.179Z,60.50
2018-10-05T20:01:11.960Z,60.18
2018-10-05T20:03:39.538Z,60.46
2018-10-05T20:06:07.285Z,59.84
2018-10-05T20:08:35.016Z,60.18
2018-10-05T20:11:02.761Z,60.29
2018-10-05T20:13:30.467Z,60.35
2018-10-05T20:15:58.256Z,60.20
2018-10-05T20:18:25.995Z,59.74
2018-10-05T20:20:53.571Z,60.00
2018-10-05T20:23:21.278Z,59.77
2018-10-05T20:25:48.993Z,60.18
2018-10-05T20:28:16.750Z,60.58
2018-10-05T20:30:44.682Z,60.87
2018-10-05T20:33:12.488Z,60.24
2018-10-05T20:35:40.251Z,60.99
2018-10-05T20:38:07.972Z,60.62
2018-10-05T20:40:35.633Z,60.82
2018-10-05T20:43:03.322Z,61.40
2018-10-05T20:45:31.129Z,61.12
2018-10-05T20:47:59.075Z,61.19
2018-10-05T20:50:26.836Z,62.43
2018-10-05T20:52:54.739Z,62.04
2018-10-05T20:55:22.553Z,62.19
2018-10-05T20:57:50.443Z,62.62
2018-10-05T21:00:18.067Z,63.27
2018-10-05T21:02:45.785Z,63.62
2018-10-05T21:05:13.478Z,63.31
2018-10-05T21:07:41.167Z,63.64
2018-10-05T21:10:08.915Z,64.00
2018-10-05T21:12:36.610Z,64.21
2018-10-05T21:15:04.369Z,63.91
2018-10-05T21:17:31.957Z,64.08
2018-10-05T21:19:59.656Z,64.47
2018-10-05T21:22:27.202Z,64.29
2018-10-05T21:24:54.922Z,64.40
2018-10-05T21:27:22.570Z,64.28
2018-10-05T21:29:50.198Z,64.93
2018-10-05T21:32:19.111Z,64.59
2018-10-05T21:34:46.877Z,64.87
2018-10-05T21:37:14.554Z,64.75
2018-10-05T21:39:42.158Z,64.87
2018-10-05T21:42:09.866Z,64.89
2018-10-05T21:44:37.512Z,65.25
2018-10-05T21:47:05.142Z,65.09
2018-10-05T21:49:32.782Z,65.45
2018-10-05T21:52:00.641Z,65.46
2018-10-05T21:54:28.267Z,64.85
2018-10-05T21:56:55.930Z,64.57
2018-10-05T21:59:23.550Z,65.00
2018-10-05T22:01:51.177Z,64.82
2018-10-05T22:04:18.762Z,64.96
2018-10-05T22:06:46.415Z,64.50
2018-10-05T22:09:14.044Z,64.79
2018-10-05T22:11:41.657Z,64.81
2018-10-05T22:14:09.193Z,64.92
2018-10-05T22:16:36.856Z,64.66
2018-10-05T22:19:04.545Z,65.32
2018-10-05T22:21:32.197Z,64.28
2018-10-05T22:23:59.789Z,63.70
2018-10-05T22:26:27.421Z,63.75
2018-10-05T22:28:55.039Z,63.43
2018-10-05T22:31:22.666Z,62.75
2018-10-05T22:33:50.339Z,61.74
2018-10-05T22:36:17.922Z,61.82
2018-10-05T22:38:45.558Z,61.67
2018-10-05T22:41:13.164Z,62.16
2018-10-05T22:43:40.743Z,62.34
2018-10-05T22:46:08.328Z,62.27
2018-10-05T22:48:36.012Z,62.53
2018-10-05T22:51:03.685Z,63.47
2018-10-05T22:53:31.295Z,63.97
2018-10-05T22:55:59.789Z,63.80
2018-10-05T22:58:27.357Z,63.24
2018-10-05T23:00:54.941Z,63.29
2018-10-05T23:03:22.637Z,63.01
2018-10-05T23:05:50.257Z,63.39
2018-10-05T23:08:18.064Z,63.21
2018-10-05T23:10:45.787Z,62.92
2018-10-05T23:13:13.462Z,63.54
2018-10-05T23:15:41.181Z,63.06
2018-10-05T23:18:08.793Z,62.88
2018-10-05T23:20:37.379Z,63.17
2018-10-05T23:23:05.439Z,63.04
2018-10-05T23:25:33.075Z,62.96
2018-10-05T23:28:00.726Z,62.29
2018-10-05T23:30:28.359Z,62.96
2018-10-05T23:32:55.983Z,62.28
2018-10-05T23:35:23.531Z,62.67
2018-10-05T23:37:51.241Z,62.50
2018-10-05T23:40:18.855Z,62.05
2018-10-05T23:42:46.478Z,62.11
2018-10-05T23:45:14.106Z,62.04
2018-10-05T23:47:41.816Z,62.36
2018-10-05T23:50:09.494Z,61.79
2018-10-05T23:52:40.751Z,61.62
2018-10-05T23:55:08.443Z,61.17
2018-10-05T23:57:37.048Z,61.73
